Time;durP1;ratioP1;P1;durP2;ratioP2;P2;SDS_P1;SDS_P2;PMS_P1;PMS_P2;Temp;Humidity;BMP_temperature;BMP_pressure;BME280_temperature;BME280_humidity;BME280_pressure;Samples;Min_cycle;Max_cycle;Signal;HPM_P1;HPM_P2
2023/12/15 00:00:48;;;;;;;2.00;1.60;;;4.90;99.90;;;;;;4979929;28;20216;-31
2023/12/15 00:03:14;;;;;;;2.13;1.63;;;4.90;99.90;;;;;;4978903;28;20215;-32
2023/12/15 00:05:40;;;;;;;2.30;1.60;;;4.90;99.90;;;;;;4975654;28;20215;-32
2023/12/15 00:08:06;;;;;;;1.90;1.70;;;4.90;99.90;;;;;;4981075;28;20202;-32
2023/12/15 00:10:32;;;;;;;3.20;2.90;;;5.00;99.90;;;;;;4993599;28;20189;-32
2023/12/15 00:12:57;;;;;;;2.30;1.90;;;5.00;99.90;;;;;;4997051;28;20195;-32
2023/12/15 00:15:23;;;;;;;1.77;1.60;;;5.00;99.90;;;;;;4980217;28;20285;-32
2023/12/15 00:17:49;;;;;;;2.13;1.83;;;4.90;99.90;;;;;;4998591;28;20191;-32
2023/12/15 00:20:15;;;;;;;2.70;1.70;;;4.90;99.90;;;;;;4979127;28;20203;-31
2023/12/15 00:22:40;;;;;;;1.87;1.50;;;4.90;99.90;;;;;;5001975;28;20194;-31
2023/12/15 00:25:06;;;;;;;2.27;1.40;;;4.80;99.90;;;;;;4979020;28;20208;-31
2023/12/15 00:27:32;;;;;;;3.00;1.67;;;4.70;99.90;;;;;;5000560;28;20186;-31
2023/12/15 00:29:58;;;;;;;2.10;1.80;;;4.60;99.90;;;;;;4977974;28;20191;-32
2023/12/15 00:32:24;;;;;;;2.33;1.83;;;4.60;99.90;;;;;;4973852;28;20183;-31
2023/12/15 00:34:50;;;;;;;3.53;1.90;;;4.70;99.90;;;;;;4989198;28;20229;-32
2023/12/15 00:37:15;;;;;;;2.13;1.77;;;4.70;99.90;;;;;;4957327;28;20193;-31
2023/12/15 00:39:41;;;;;;;2.23;1.50;;;4.70;99.90;;;;;;4960917;28;20284;-32
2023/12/15 00:42:07;;;;;;;2.43;1.70;;;4.70;99.90;;;;;;4981029;28;20210;-31
2023/12/15 00:44:33;;;;;;;3.37;2.00;;;4.70;99.90;;;;;;4965318;28;20261;-31
2023/12/15 00:46:59;;;;;;;2.87;2.30;;;4.70;99.90;;;;;;4982319;28;20191;-31
2023/12/15 00:49:25;;;;;;;2.27;1.90;;;4.80;99.90;;;;;;4970800;28;20189;-31
2023/12/15 00:51:51;;;;;;;2.13;1.80;;;4.80;99.90;;;;;;4971937;28;20180;-31
2023/12/15 00:54:17;;;;;;;1.93;1.63;;;4.80;99.90;;;;;;4994232;28;20187;-31
2023/12/15 00:56:43;;;;;;;3.27;2.30;;;4.90;99.90;;;;;;4964616;28;20187;-31
2023/12/15 00:59:08;;;;;;;2.73;2.27;;;4.90;99.90;;;;;;4967943;28;20186;-31
2023/12/15 01:01:34;;;;;;;4.00;2.50;;;4.90;99.90;;;;;;4984862;28;20187;-31
2023/12/15 01:04:00;;;;;;;3.17;2.40;;;4.90;99.90;;;;;;4985956;28;20239;-32
2023/12/15 01:06:26;;;;;;;4.10;3.03;;;4.90;99.90;;;;;;4970889;28;20286;-32
2023/12/15 01:08:52;;;;;;;4.80;3.10;;;4.90;99.90;;;;;;4987615;28;20189;-32
2023/12/15 01:11:17;;;;;;;3.87;3.00;;;4.90;99.90;;;;;;4989238;28;20183;-32
2023/12/15 01:13:43;;;;;;;6.07;4.00;;;4.90;99.90;;;;;;4986219;28;20184;-32
2023/12/15 01:16:09;;;;;;;4.33;3.53;;;4.90;99.90;;;;;;5002065;28;20220;-32
2023/12/15 01:18:35;;;;;;;4.53;2.90;;;4.90;99.90;;;;;;4957807;28;20192;-32
2023/12/15 01:21:01;;;;;;;3.90;2.70;;;4.90;99.90;;;;;;4970582;28;20193;-31
2023/12/15 01:23:27;;;;;;;3.83;2.77;;;4.90;99.90;;;;;;4981702;28;20215;-32
2023/12/15 01:25:53;;;;;;;4.87;2.97;;;4.90;99.90;;;;;;4972147;28;20219;-31
2023/12/15 01:28:19;;;;;;;4.07;2.80;;;4.80;99.90;;;;;;4981878;28;20183;-32
2023/12/15 01:30:44;;;;;;;3.97;2.90;;;4.80;99.90;;;;;;4991111;28;20213;-32
2023/12/15 01:33:10;;;;;;;3.07;2.40;;;4.90;99.90;;;;;;4996779;28;20191;-32
2023/12/15 01:35:36;;;;;;;10.23;3.03;;;4.90;99.90;;;;;;4972851;28;20212;-31
2023/12/15 01:38:02;;;;;;;3.40;2.60;;;4.90;99.90;;;;;;4987461;28;20192;-32
2023/12/15 01:40:28;;;;;;;3.07;2.77;;;4.90;99.90;;;;;;4987869;28;20285;-31
2023/12/15 01:43:00;;;;;;;4.50;3.40;;;4.90;99.90;;;;;;4986125;28;20289;-32
2023/12/15 01:45:26;;;;;;;3.80;2.87;;;4.90;99.90;;;;;;4970224;28;20199;-32
2023/12/15 01:47:52;;;;;;;4.73;3.30;;;4.90;99.90;;;;;;4985835;28;20202;-32
2023/12/15 01:50:18;;;;;;;3.77;3.10;;;4.90;99.90;;;;;;4987670;28;20186;-31
2023/12/15 01:52:44;;;;;;;5.93;3.57;;;4.90;99.90;;;;;;4985997;28;20235;-32
2023/12/15 01:55:10;;;;;;;4.40;3.23;;;4.90;99.90;;;;;;4987860;28;20214;-31
2023/12/15 01:57:36;;;;;;;6.43;3.77;;;5.00;99.90;;;;;;4964348;28;20184;-32
2023/12/15 02:00:06;;;;;;;7.13;4.10;;;5.00;99.90;;;;;;4997370;28;20188;-32
2023/12/15 02:02:37;;;;;;;4.70;3.83;;;4.90;99.90;;;;;;4987955;28;20183;-31
2023/12/15 02:05:04;;;;;;;4.60;3.60;;;5.00;99.90;;;;;;4970199;28;20219;-32
2023/12/15 02:07:30;;;;;;;5.83;4.13;;;5.00;99.90;;;;;;4964149;28;20181;-32
2023/12/15 02:09:58;;;;;;;4.77;3.63;;;5.00;99.90;;;;;;4999900;28;20192;-31
2023/12/15 02:12:24;;;;;;;6.77;4.23;;;4.90;99.90;;;;;;4983242;28;20187;-31
2023/12/15 02:14:50;;;;;;;6.00;4.33;;;5.00;99.90;;;;;;4987354;28;20235;-31
2023/12/15 02:17:15;;;;;;;8.00;4.67;;;4.90;99.90;;;;;;4972288;28;20223;-31
2023/12/15 02:19:41;;;;;;;7.40;4.67;;;4.90;99.90;;;;;;4981702;28;20275;-32
2023/12/15 02:22:08;;;;;;;5.33;4.27;;;4.90;99.90;;;;;;4985161;28;20218;-31
2023/12/15 02:24:34;;;;;;;5.93;4.70;;;4.90;99.90;;;;;;4968907;28;20207;-31
2023/12/15 02:27:00;;;;;;;5.97;4.47;;;4.90;99.90;;;;;;4987304;28;20245;-31
2023/12/15 02:29:27;;;;;;;6.47;5.03;;;4.90;99.90;;;;;;4987948;28;20187;-31
2023/12/15 02:31:54;;;;;;;5.67;4.40;;;4.90;99.90;;;;;;4992282;28;20198;-31
2023/12/15 02:34:20;;;;;;;5.20;4.33;;;4.90;99.90;;;;;;4969050;28;20242;-32
2023/12/15 02:36:46;;;;;;;5.20;4.37;;;4.90;99.90;;;;;;4964920;28;20192;-31
2023/12/15 02:39:11;;;;;;;7.67;4.87;;;4.90;99.90;;;;;;4980364;28;20187;-31
2023/12/15 02:41:37;;;;;;;5.27;4.03;;;4.90;99.90;;;;;;4973251;28;20195;-31
2023/12/15 02:44:03;;;;;;;7.83;4.60;;;4.90;99.90;;;;;;4965331;28;20210;-31
2023/12/15 02:46:29;;;;;;;4.73;3.83;;;4.90;99.90;;;;;;4968750;28;20201;-32
2023/12/15 02:48:55;;;;;;;5.87;4.27;;;4.90;99.90;;;;;;4990758;28;20241;-31
2023/12/15 02:51:32;;;;;;;6.33;4.80;;;4.90;99.90;;;;;;4995365;28;20179;-31
2023/12/15 02:53:59;;;;;;;4.83;3.80;;;4.80;99.90;;;;;;4988709;28;20214;-31
2023/12/15 02:56:25;;;;;;;4.53;3.90;;;4.80;99.90;;;;;;4974374;28;20213;-32
2023/12/15 02:58:50;;;;;;;4.80;3.80;;;4.90;99.90;;;;;;4984555;28;20191;-31
2023/12/15 03:01:16;;;;;;;5.80;3.97;;;4.80;99.90;;;;;;4989116;28;20187;-31
2023/12/15 03:03:42;;;;;;;4.37;3.77;;;4.90;99.90;;;;;;4984520;28;20235;-32
2023/12/15 03:06:08;;;;;;;4.60;4.10;;;4.90;99.90;;;;;;4983478;28;20206;-31
2023/12/15 03:08:34;;;;;;;4.40;3.80;;;4.80;99.90;;;;;;4962407;28;20203;-31
2023/12/15 03:11:00;;;;;;;4.33;3.67;;;4.80;99.90;;;;;;5005306;28;20189;-31
2023/12/15 03:13:29;;;;;;;5.23;3.77;;;4.80;99.90;;;;;;4972315;28;20188;-32
2023/12/15 03:16:08;;;;;;;4.00;3.60;;;4.80;99.90;;;;;;4998891;28;20303;-32
2023/12/15 03:18:35;;;;;;;5.30;4.07;;;4.80;99.90;;;;;;4969688;28;20175;-31
2023/12/15 03:21:01;;;;;;;4.20;3.80;;;4.80;99.90;;;;;;5004877;28;20188;-31
2023/12/15 03:23:27;;;;;;;4.83;3.73;;;4.80;99.90;;;;;;4972256;28;20676;-32
2023/12/15 03:25:52;;;;;;;4.87;3.73;;;4.80;99.90;;;;;;5002764;28;20209;-31
2023/12/15 03:28:18;;;;;;;5.47;3.90;;;4.80;99.90;;;;;;4994649;28;20194;-31
2023/12/15 03:30:44;;;;;;;5.83;4.30;;;4.80;99.90;;;;;;5014548;28;20202;-32
2023/12/15 03:33:10;;;;;;;6.10;4.40;;;4.80;99.90;;;;;;4980241;28;20192;-31
2023/12/15 03:35:36;;;;;;;4.93;3.80;;;4.90;99.90;;;;;;4995264;28;20265;-31
2023/12/15 03:38:03;;;;;;;5.00;3.90;;;4.90;99.90;;;;;;4996373;28;20182;-31
2023/12/15 03:40:29;;;;;;;5.70;4.33;;;4.80;99.90;;;;;;5016288;28;20198;-31
2023/12/15 03:42:55;;;;;;;4.93;3.70;;;4.90;99.90;;;;;;4996574;28;20192;-32
2023/12/15 03:45:21;;;;;;;4.93;3.70;;;4.80;99.90;;;;;;4999002;28;20234;-31
2023/12/15 03:47:47;;;;;;;5.27;3.77;;;4.80;99.90;;;;;;4981194;28;20182;-32
2023/12/15 03:50:12;;;;;;;4.43;3.83;;;4.80;99.90;;;;;;4995467;28;20246;-32
2023/12/15 03:52:38;;;;;;;5.50;4.37;;;4.80;99.90;;;;;;4982714;28;20182;-31
2023/12/15 03:55:04;;;;;;;5.13;3.80;;;4.80;99.90;;;;;;4978453;28;20217;-31
2023/12/15 03:57:30;;;;;;;5.17;3.67;;;4.80;99.90;;;;;;4981574;28;20210;-32
2023/12/15 03:59:56;;;;;;;5.07;4.23;;;4.80;99.90;;;;;;4978873;28;20184;-32
2023/12/15 04:02:22;;;;;;;6.50;3.77;;;4.70;99.90;;;;;;4987964;28;20183;-31
2023/12/15 04:04:48;;;;;;;4.57;3.83;;;4.70;99.90;;;;;;4996678;28;20222;-31
2023/12/15 04:07:13;;;;;;;4.43;3.70;;;4.70;99.90;;;;;;4999373;28;20194;-31
2023/12/15 04:09:39;;;;;;;4.33;3.77;;;4.70;99.90;;;;;;4984181;28;20268;-31
2023/12/15 04:12:05;;;;;;;4.73;3.90;;;4.80;99.90;;;;;;4997188;28;20192;-31
2023/12/15 04:14:34;;;;;;;4.53;4.03;;;4.70;99.90;;;;;;4997126;28;20261;-31
2023/12/15 04:17:00;;;;;;;4.90;4.27;;;4.70;99.90;;;;;;4969351;28;20202;-31
2023/12/15 04:19:26;;;;;;;5.57;3.97;;;4.70;99.90;;;;;;4994952;28;20212;-31
2023/12/15 04:21:52;;;;;;;5.10;4.10;;;4.70;99.90;;;;;;4997911;28;20210;-31
2023/12/15 04:24:18;;;;;;;4.53;3.97;;;4.70;99.90;;;;;;4980750;28;20305;-31
2023/12/15 04:26:44;;;;;;;5.33;4.17;;;4.70;99.90;;;;;;4998774;28;20287;-31
2023/12/15 04:29:10;;;;;;;4.87;3.67;;;4.70;99.90;;;;;;4991687;28;20191;-31
2023/12/15 04:31:36;;;;;;;5.07;3.93;;;4.70;99.90;;;;;;4982725;28;20190;-32
2023/12/15 04:34:02;;;;;;;5.67;4.47;;;4.70;99.90;;;;;;4999372;28;20261;-31
2023/12/15 04:36:28;;;;;;;6.33;4.07;;;4.70;99.90;;;;;;4976208;28;20260;-31
2023/12/15 04:38:54;;;;;;;7.20;4.60;;;4.70;99.90;;;;;;4995816;28;20199;-31
2023/12/15 04:41:21;;;;;;;5.50;4.33;;;4.70;99.90;;;;;;4982867;28;20188;-31
2023/12/15 04:43:47;;;;;;;5.57;4.43;;;4.80;99.90;;;;;;4996159;28;20305;-33
2023/12/15 04:46:29;;;;;;;5.63;4.60;;;4.80;99.90;;;;;;5014632;28;20200;-32
2023/12/15 04:48:58;;;;;;;5.93;4.63;;;4.80;99.90;;;;;;4975876;28;20197;-31
2023/12/15 04:51:24;;;;;;;5.70;4.80;;;4.80;99.90;;;;;;4996283;28;20198;-32
2023/12/15 04:53:50;;;;;;;7.30;5.03;;;4.80;99.90;;;;;;4990828;28;20203;-31
2023/12/15 04:56:16;;;;;;;5.03;3.93;;;4.70;99.90;;;;;;4990496;28;20271;-31
2023/12/15 04:58:43;;;;;;;7.10;5.47;;;4.60;99.90;;;;;;4994790;28;20194;-31
2023/12/15 05:01:10;;;;;;;4.60;3.80;;;4.70;99.90;;;;;;4984067;28;20191;-32
2023/12/15 05:03:37;;;;;;;6.53;5.13;;;4.60;99.90;;;;;;4980029;28;20222;-31
2023/12/15 05:06:03;;;;;;;5.00;4.00;;;4.60;99.90;;;;;;4999352;28;20210;-31
2023/12/15 05:08:29;;;;;;;4.33;3.90;;;4.60;99.90;;;;;;4980467;28;20269;-31
2023/12/15 05:10:54;;;;;;;5.00;3.43;;;4.60;99.90;;;;;;4984464;28;20251;-31
2023/12/15 05:13:20;;;;;;;4.57;3.57;;;4.60;99.90;;;;;;4994156;28;20195;-30
2023/12/15 05:15:46;;;;;;;5.80;3.93;;;4.60;99.90;;;;;;4994886;28;20229;-31
2023/12/15 05:18:12;;;;;;;4.40;3.40;;;4.60;99.90;;;;;;4991767;28;20203;-31
2023/12/15 05:20:38;;;;;;;5.53;4.40;;;4.60;99.90;;;;;;4979514;28;20215;-31
2023/12/15 05:23:04;;;;;;;4.83;3.80;;;4.60;99.90;;;;;;4977528;28;20185;-31
2023/12/15 05:25:31;;;;;;;5.73;4.20;;;4.60;99.90;;;;;;4978860;28;20277;-32
2023/12/15 05:27:57;;;;;;;5.87;4.43;;;4.50;99.90;;;;;;5011715;28;20195;-31
2023/12/15 05:30:23;;;;;;;6.97;4.60;;;4.50;99.90;;;;;;4974552;28;20190;-31
2023/12/15 05:32:49;;;;;;;5.37;4.60;;;4.40;99.90;;;;;;4992778;28;20192;-32
2023/12/15 05:35:15;;;;;;;6.27;4.50;;;4.40;99.90;;;;;;4977755;28;20694;-31
2023/12/15 05:37:40;;;;;;;6.00;4.40;;;4.50;99.90;;;;;;4959363;28;20222;-31
2023/12/15 05:40:11;;;;;;;7.53;4.63;;;4.50;99.90;;;;;;4971458;28;20192;-31
2023/12/15 05:42:37;;;;;;;6.50;4.77;;;4.50;99.90;;;;;;4970706;28;20189;-31
2023/12/15 05:45:04;;;;;;;6.97;5.37;;;4.50;99.90;;;;;;4980273;28;20251;-31
2023/12/15 05:47:30;;;;;;;5.77;4.73;;;4.50;99.90;;;;;;4964751;28;20229;-30
2023/12/15 05:49:56;;;;;;;7.00;5.00;;;4.50;99.90;;;;;;4979671;28;20186;-31
2023/12/15 05:52:22;;;;;;;6.80;4.87;;;4.50;99.90;;;;;;4992310;28;20191;-31
2023/12/15 05:54:47;;;;;;;7.40;5.63;;;4.60;99.90;;;;;;4961058;28;20306;-31
2023/12/15 05:57:13;;;;;;;9.40;6.00;;;4.60;99.90;;;;;;4956518;28;20190;-31
2023/12/15 05:59:39;;;;;;;7.30;5.50;;;4.60;99.90;;;;;;4965133;28;20191;-31
2023/12/15 06:02:05;;;;;;;7.97;4.77;;;4.60;99.90;;;;;;4955809;28;20253;-31
2023/12/15 06:04:31;;;;;;;6.67;4.97;;;4.60;99.90;;;;;;4985646;28;20278;-31
2023/12/15 06:06:56;;;;;;;5.87;4.40;;;4.60;99.90;;;;;;4961626;28;20179;-31
2023/12/15 06:09:22;;;;;;;6.00;5.17;;;4.60;99.90;;;;;;4989730;28;20185;-31
2023/12/15 06:11:49;;;;;;;5.83;4.83;;;4.60;99.90;;;;;;4962287;28;20197;-31
2023/12/15 06:14:14;;;;;;;7.50;5.33;;;4.50;99.90;;;;;;4962972;28;20195;-32
2023/12/15 06:16:40;;;;;;;7.87;5.73;;;4.50;99.90;;;;;;4962368;28;20187;-31
2023/12/15 06:19:06;;;;;;;7.67;6.00;;;4.50;99.90;;;;;;4962209;28;20188;-32
2023/12/15 06:21:32;;;;;;;7.23;5.90;;;4.50;99.90;;;;;;4987560;28;20192;-30
2023/12/15 06:23:58;;;;;;;9.20;6.30;;;4.60;99.90;;;;;;4970698;28;20240;-31
2023/12/15 06:26:25;;;;;;;8.43;6.73;;;4.60;99.90;;;;;;5006631;28;20209;-31
2023/12/15 06:28:53;;;;;;;12.43;7.87;;;4.60;99.90;;;;;;4967716;28;20205;-31
2023/12/15 06:31:20;;;;;;;12.37;9.50;;;4.60;99.90;;;;;;4970623;28;20290;-33
2023/12/15 06:33:46;;;;;;;11.93;9.23;;;4.60;99.90;;;;;;4966229;28;20190;-31
2023/12/15 06:36:12;;;;;;;12.07;7.97;;;4.60;99.90;;;;;;4991120;28;20216;-31
2023/12/15 06:38:42;;;;;;;11.13;6.63;;;4.60;99.90;;;;;;4989972;28;20187;-32
2023/12/15 06:41:11;;;;;;;8.77;6.60;;;4.60;99.90;;;;;;4981005;28;20183;-31
2023/12/15 06:43:42;;;;;;;10.63;7.60;;;4.60;99.90;;;;;;4983920;28;20220;-32
2023/12/15 06:46:08;;;;;;;10.13;7.73;;;4.60;99.90;;;;;;4985943;28;20292;-31
2023/12/15 06:48:35;;;;;;;11.60;7.50;;;4.60;99.90;;;;;;4986955;28;20202;-31
2023/12/15 06:51:07;;;;;;;10.73;7.50;;;4.60;99.90;;;;;;4988086;28;20199;-31
2023/12/15 06:53:33;;;;;;;10.20;7.80;;;4.60;99.90;;;;;;4989548;28;20200;-30
2023/12/15 06:56:01;;;;;;;10.87;7.23;;;4.60;99.90;;;;;;4976559;28;20235;-32
2023/12/15 06:58:27;;;;;;;11.90;7.60;;;4.60;99.90;;;;;;4982344;28;20207;-30
2023/12/15 07:00:53;;;;;;;8.83;7.00;;;4.70;99.90;;;;;;4983266;28;20202;-31
2023/12/15 07:03:19;;;;;;;10.57;7.37;;;4.60;99.90;;;;;;4963504;28;20219;-30
2023/12/15 07:05:45;;;;;;;11.40;7.33;;;4.60;99.90;;;;;;4961860;28;20229;-31
2023/12/15 07:08:11;;;;;;;10.63;7.43;;;4.60;99.90;;;;;;4979760;28;20271;-31
2023/12/15 07:10:37;;;;;;;10.80;8.00;;;4.60;99.90;;;;;;4987530;28;20271;-31
2023/12/15 07:13:03;;;;;;;10.70;7.40;;;4.60;99.90;;;;;;4966351;28;20197;-31
2023/12/15 07:15:29;;;;;;;11.97;8.30;;;4.60;99.90;;;;;;4980688;28;20286;-30
2023/12/15 07:17:55;;;;;;;12.57;7.57;;;4.60;99.90;;;;;;4966329;28;20183;-31
2023/12/15 07:20:24;;;;;;;10.30;7.37;;;4.60;99.90;;;;;;4989218;28;20187;-32
2023/12/15 07:22:50;;;;;;;10.50;7.47;;;4.60;99.90;;;;;;4969343;28;20187;-31
2023/12/15 07:25:16;;;;;;;12.23;8.00;;;4.60;99.90;;;;;;4974073;28;20243;-31
2023/12/15 07:27:42;;;;;;;12.03;7.60;;;4.70;99.90;;;;;;4965764;28;20183;-31
2023/12/15 07:30:08;;;;;;;11.83;7.93;;;4.60;99.90;;;;;;5005722;28;20289;-31
2023/12/15 07:32:34;;;;;;;9.43;7.77;;;4.60;99.90;;;;;;4967318;28;20255;-28
2023/12/15 07:35:00;;;;;;;11.13;7.40;;;4.70;99.90;;;;;;4984371;28;20314;-32
2023/12/15 07:37:26;;;;;;;12.13;7.80;;;4.70;99.90;;;;;;4972582;28;20195;-30
2023/12/15 07:39:51;;;;;;;13.77;8.87;;;4.70;99.90;;;;;;4969049;28;20192;-31
2023/12/15 07:42:19;;;;;;;11.53;7.83;;;4.70;99.90;;;;;;4972399;28;20216;-31
2023/12/15 07:44:45;;;;;;;13.77;8.30;;;4.70;99.90;;;;;;4972066;28;20292;-31
2023/12/15 07:47:11;;;;;;;13.90;8.10;;;4.70;99.90;;;;;;4971787;28;20190;-31
2023/12/15 07:49:37;;;;;;;12.00;8.13;;;4.70;99.90;;;;;;4986330;28;20187;-32
2023/12/15 07:52:04;;;;;;;12.57;8.00;;;4.70;99.90;;;;;;4989619;28;20180;-31
2023/12/15 07:54:30;;;;;;;11.23;8.27;;;4.70;99.90;;;;;;4986491;28;20228;-31
2023/12/15 07:56:57;;;;;;;11.23;7.90;;;4.70;99.90;;;;;;4988820;28;20218;-32
2023/12/15 07:59:23;;;;;;;13.17;8.83;;;4.60;99.90;;;;;;4972125;28;20214;-31
2023/12/15 08:01:55;;;;;;;12.30;8.37;;;4.70;99.90;;;;;;4990400;28;20192;-31
2023/12/15 08:04:21;;;;;;;14.10;8.43;;;4.70;99.90;;;;;;4984570;28;20308;-31
2023/12/15 08:06:47;;;;;;;12.67;8.43;;;4.70;99.90;;;;;;4990113;28;20182;-32
2023/12/15 08:09:13;;;;;;;12.70;8.87;;;4.70;99.90;;;;;;4972282;28;20187;-31
2023/12/15 08:11:38;;;;;;;13.60;9.17;;;4.70;99.90;;;;;;4976483;28;20180;-32
2023/12/15 08:14:04;;;;;;;13.67;9.43;;;4.70;99.90;;;;;;4987758;28;21064;-31
2023/12/15 08:16:30;;;;;;;12.57;9.20;;;4.70;99.90;;;;;;4972566;28;20208;-31
2023/12/15 08:18:58;;;;;;;12.83;9.23;;;4.80;99.90;;;;;;4972226;28;20290;-31
2023/12/15 08:21:24;;;;;;;14.23;8.63;;;4.80;99.90;;;;;;4979407;28;20288;-31
2023/12/15 08:23:50;;;;;;;11.93;8.63;;;4.80;99.90;;;;;;4988409;28;20223;-31
2023/12/15 08:26:29;;;;;;;15.30;10.07;;;4.80;99.90;;;;;;4979534;28;20204;-32
2023/12/15 08:28:55;;;;;;;23.43;12.70;;;4.80;99.90;;;;;;4983516;28;20190;-31
2023/12/15 08:31:24;;;;;;;15.47;9.80;;;4.80;99.90;;;;;;4977821;28;20182;-31
2023/12/15 08:33:51;;;;;;;15.83;10.20;;;4.80;99.90;;;;;;4973980;28;20217;-31
2023/12/15 08:36:17;;;;;;;14.23;8.90;;;4.80;99.90;;;;;;4976617;28;20239;-32
2023/12/15 08:38:43;;;;;;;13.27;8.93;;;4.90;99.90;;;;;;4978189;28;20219;-32
2023/12/15 08:41:11;;;;;;;13.47;8.83;;;4.90;99.90;;;;;;4967827;28;20275;-32
2023/12/15 08:43:37;;;;;;;15.27;9.37;;;4.90;99.90;;;;;;4983186;28;20206;-33
2023/12/15 08:46:04;;;;;;;12.23;8.93;;;4.90;99.90;;;;;;4978142;28;20200;-32
2023/12/15 08:48:30;;;;;;;12.93;8.83;;;5.00;99.90;;;;;;4958934;28;20189;-32
2023/12/15 08:50:56;;;;;;;14.17;9.73;;;5.00;99.90;;;;;;4977492;28;20191;-30
2023/12/15 08:53:22;;;;;;;13.73;9.10;;;5.00;99.90;;;;;;4975398;28;20185;-30
2023/12/15 08:55:48;;;;;;;14.00;8.73;;;5.10;99.90;;;;;;4996575;28;20214;-29
2023/12/15 08:58:15;;;;;;;13.67;9.60;;;5.10;99.90;;;;;;4987523;28;20202;-30
2023/12/15 09:00:41;;;;;;;11.17;7.77;;;5.10;99.90;;;;;;4965490;28;20192;-31
2023/12/15 09:03:07;;;;;;;12.50;8.23;;;5.10;99.90;;;;;;4960358;28;20184;-31
2023/12/15 09:05:34;;;;;;;11.37;8.10;;;5.10;99.90;;;;;;4985108;28;20198;-32
2023/12/15 09:08:00;;;;;;;12.73;8.50;;;5.20;99.90;;;;;;4955718;28;20184;-35
2023/12/15 09:10:33;;;;;;;12.00;8.93;;;5.20;99.90;;;;;;4985360;28;20202;-32
2023/12/15 09:13:02;;;;;;;20.40;10.97;;;5.20;99.90;;;;;;4975448;28;20312;-31
2023/12/15 09:15:29;;;;;;;20.27;10.73;;;5.30;99.90;;;;;;4983043;28;20208;-31
2023/12/15 09:17:57;;;;;;;18.67;11.20;;;5.20;99.90;;;;;;4968856;28;20187;-32
2023/12/15 09:20:27;;;;;;;15.40;9.30;;;5.30;99.90;;;;;;4966301;28;20235;-32
2023/12/15 09:22:54;;;;;;;14.77;8.20;;;5.30;99.90;;;;;;4979917;28;20184;-32
2023/12/15 09:25:22;;;;;;;14.60;8.90;;;5.30;99.90;;;;;;4963673;28;20235;-31
2023/12/15 09:27:48;;;;;;;23.87;15.17;;;5.30;99.90;;;;;;4979900;28;20336;-32
2023/12/15 09:30:14;;;;;;;15.47;11.00;;;5.40;99.90;;;;;;4984631;28;20282;-32
2023/12/15 09:32:39;;;;;;;17.00;9.90;;;5.40;99.90;;;;;;4982666;28;20189;-31
2023/12/15 09:35:07;;;;;;;10.67;8.00;;;5.40;99.90;;;;;;4969506;28;20225;-31
2023/12/15 09:37:33;;;;;;;10.53;7.70;;;5.50;99.90;;;;;;4957557;28;20192;-36
2023/12/15 09:39:59;;;;;;;10.37;7.30;;;5.50;99.90;;;;;;4987428;28;20260;-32
2023/12/15 09:42:27;;;;;;;11.10;8.13;;;5.50;99.90;;;;;;4987489;28;20192;-32
2023/12/15 09:44:53;;;;;;;10.53;7.27;;;5.50;99.90;;;;;;4984845;28;20231;-32
2023/12/15 09:47:24;;;;;;;9.30;6.67;;;5.50;99.90;;;;;;4984297;28;20235;-34
2023/12/15 09:49:52;;;;;;;8.60;6.97;;;5.50;99.90;;;;;;4971598;28;20275;-33
2023/12/15 09:52:21;;;;;;;11.37;7.10;;;5.60;99.90;;;;;;4973000;28;20241;-33
2023/12/15 09:54:50;;;;;;;11.97;7.50;;;5.60;99.90;;;;;;4969314;28;20211;-34
2023/12/15 09:57:17;;;;;;;9.37;6.60;;;5.70;99.90;;;;;;4992909;28;20192;-33
2023/12/15 09:59:43;;;;;;;10.60;6.90;;;5.70;99.90;;;;;;4970000;28;20719;-35
2023/12/15 10:02:09;;;;;;;10.70;7.30;;;5.80;99.90;;;;;;4960094;28;20199;-34
2023/12/15 10:04:35;;;;;;;11.80;7.87;;;5.80;99.90;;;;;;4989802;28;20223;-32
2023/12/15 10:07:02;;;;;;;11.20;7.97;;;5.80;99.90;;;;;;4966910;28;20192;-31
2023/12/15 10:09:28;;;;;;;9.17;7.27;;;5.90;99.90;;;;;;4965994;28;20180;-32
2023/12/15 10:11:54;;;;;;;9.13;7.23;;;5.90;99.90;;;;;;4964735;28;20192;-29
2023/12/15 10:14:20;;;;;;;9.27;6.90;;;5.90;99.90;;;;;;4963776;28;20195;-29
2023/12/15 10:16:46;;;;;;;8.93;6.53;;;6.00;99.90;;;;;;4990436;28;20183;-29
2023/12/15 10:19:12;;;;;;;9.27;6.50;;;6.00;99.90;;;;;;4988796;28;20191;-30
2023/12/15 10:21:39;;;;;;;8.07;6.33;;;6.00;99.90;;;;;;4984379;28;20196;-30
2023/12/15 10:24:25;;;;;;;9.80;6.33;;;6.10;99.90;;;;;;4985172;28;20902;-32
2023/12/15 10:26:52;;;;;;;8.13;6.80;;;6.10;99.90;;;;;;4986634;28;20380;-33
2023/12/15 10:29:19;;;;;;;9.80;6.70;;;6.10;99.90;;;;;;4963824;28;20184;-32
2023/12/15 10:31:45;;;;;;;7.47;6.50;;;6.10;99.90;;;;;;4965739;28;20173;-32
2023/12/15 10:34:11;;;;;;;10.90;7.70;;;6.10;99.90;;;;;;4986541;28;20184;-32
2023/12/15 10:36:44;;;;;;;9.73;7.00;;;6.10;99.90;;;;;;4963074;28;20220;-33
2023/12/15 10:39:12;;;;;;;10.03;7.47;;;6.20;99.90;;;;;;4983996;28;20196;-31
2023/12/15 10:41:41;;;;;;;9.70;6.00;;;6.20;99.90;;;;;;4980977;28;20176;-31
2023/12/15 10:44:08;;;;;;;8.17;5.93;;;6.30;99.90;;;;;;4985670;28;20207;-31
2023/12/15 10:46:37;;;;;;;9.17;5.83;;;6.30;99.90;;;;;;4987865;28;20214;-31
2023/12/15 10:49:04;;;;;;;10.73;6.83;;;6.30;99.90;;;;;;4972494;28;20295;-31
2023/12/15 10:51:31;;;;;;;8.00;5.70;;;6.30;99.90;;;;;;4976728;28;20199;-31
2023/12/15 10:53:58;;;;;;;7.43;5.43;;;6.30;99.90;;;;;;4964141;28;20195;-32
2023/12/15 10:56:26;;;;;;;7.57;6.10;;;6.40;99.90;;;;;;4989091;28;20208;-31
2023/12/15 10:58:53;;;;;;;10.50;7.83;;;6.40;99.90;;;;;;4977202;28;20197;-28
2023/12/15 11:01:22;;;;;;;9.37;7.47;;;6.40;99.90;;;;;;4987073;28;20238;-31
2023/12/15 11:03:48;;;;;;;8.27;6.50;;;6.50;99.90;;;;;;4980102;28;20232;-29
2023/12/15 11:06:30;;;;;;;8.93;6.47;;;6.50;99.90;;;;;;4987859;28;20235;-29
2023/12/15 11:09:00;;;;;;;9.37;7.13;;;6.50;99.90;;;;;;4982349;28;20188;-29
2023/12/15 11:11:29;;;;;;;9.37;7.10;;;6.60;99.90;;;;;;4967819;28;20192;-29
2023/12/15 11:14:04;;;;;;;10.97;7.73;;;6.60;99.90;;;;;;4991382;28;20184;-29
2023/12/15 11:16:32;;;;;;;9.90;6.63;;;6.70;99.90;;;;;;4961206;28;20212;-29
2023/12/15 11:19:01;;;;;;;9.93;6.77;;;6.70;99.90;;;;;;4970530;28;20184;-32
2023/12/15 11:21:28;;;;;;;8.50;6.53;;;6.70;99.90;;;;;;4974217;28;20192;-31
2023/12/15 11:24:04;;;;;;;8.70;6.80;;;6.80;99.90;;;;;;4956565;28;20205;-30
2023/12/15 11:26:33;;;;;;;12.13;7.03;;;6.90;99.90;;;;;;4995651;28;20200;-30
2023/12/15 11:29:07;;;;;;;8.53;7.17;;;6.90;99.90;;;;;;4980830;28;20187;-33
2023/12/15 11:31:33;;;;;;;10.00;7.07;;;7.00;99.90;;;;;;4963411;28;20206;-31
2023/12/15 11:34:04;;;;;;;8.70;5.90;;;7.00;99.90;;;;;;4965069;28;20207;-31
2023/12/15 11:36:31;;;;;;;8.27;6.60;;;7.00;99.90;;;;;;4958096;28;20761;-31
2023/12/15 11:39:00;;;;;;;8.70;6.90;;;7.00;99.90;;;;;;4964978;28;20218;-31
2023/12/15 11:41:26;;;;;;;8.87;5.20;;;7.00;99.90;;;;;;4990084;28;20188;-32
2023/12/15 11:43:52;;;;;;;7.47;5.60;;;7.00;99.90;;;;;;4966108;28;20219;-32
2023/12/15 11:46:22;;;;;;;7.60;5.70;;;7.10;99.90;;;;;;4965201;28;20243;-32
2023/12/15 11:48:48;;;;;;;7.03;5.93;;;7.20;99.90;;;;;;4963824;28;20187;-32
2023/12/15 11:51:14;;;;;;;8.37;5.90;;;7.20;99.90;;;;;;4984676;28;20188;-32
2023/12/15 11:53:45;;;;;;;9.00;5.77;;;7.20;99.90;;;;;;4971430;28;20184;-31
2023/12/15 11:56:11;;;;;;;5.73;4.33;;;7.20;99.90;;;;;;4990911;28;20215;-32
2023/12/15 11:58:37;;;;;;;6.33;4.73;;;7.30;99.90;;;;;;4990877;28;20196;-32
2023/12/15 12:01:04;;;;;;;5.60;4.10;;;7.30;99.90;;;;;;4961028;28;20220;-32
2023/12/15 12:03:33;;;;;;;4.90;4.33;;;7.30;99.90;;;;;;4967478;28;20298;-32
2023/12/15 12:06:05;;;;;;;6.07;3.93;;;7.30;99.90;;;;;;4984675;28;20209;-33
2023/12/15 12:08:34;;;;;;;5.77;4.30;;;7.30;99.90;;;;;;4965839;28;20184;-34
2023/12/15 12:11:01;;;;;;;6.17;4.57;;;7.30;99.90;;;;;;4991290;28;20252;-29
2023/12/15 12:13:31;;;;;;;13.73;9.87;;;7.30;99.90;;;;;;4965941;28;20223;-31
2023/12/15 12:15:57;;;;;;;7.03;4.93;;;7.40;99.90;;;;;;4961694;28;20200;-31
2023/12/15 12:18:25;;;;;;;6.03;4.10;;;7.40;99.90;;;;;;4986171;28;20192;-33
2023/12/15 12:21:04;;;;;;;5.33;4.07;;;7.50;99.90;;;;;;4982713;28;20194;-32
2023/12/15 12:23:31;;;;;;;5.93;4.53;;;7.40;99.90;;;;;;4987732;28;20211;-31
2023/12/15 12:25:58;;;;;;;4.57;3.67;;;7.40;99.90;;;;;;4972868;28;20209;-29
2023/12/15 12:28:40;;;;;;;4.03;3.57;;;7.40;99.90;;;;;;4962796;28;20198;-29
2023/12/15 12:31:06;;;;;;;5.13;3.63;;;7.50;99.90;;;;;;4983269;28;20187;-30
2023/12/15 12:33:32;;;;;;;4.23;3.23;;;7.60;99.90;;;;;;4977868;28;20188;-33
2023/12/15 12:35:59;;;;;;;3.40;2.90;;;7.60;99.90;;;;;;4961846;28;20226;-33
2023/12/15 12:38:25;;;;;;;4.67;3.37;;;7.70;99.90;;;;;;4962453;28;20245;-32
2023/12/15 12:40:50;;;;;;;3.70;3.23;;;7.70;99.90;;;;;;4972658;28;20216;-31
2023/12/15 12:43:16;;;;;;;3.90;3.40;;;7.60;99.90;;;;;;4966270;28;20190;-31
2023/12/15 12:45:42;;;;;;;4.23;3.23;;;7.50;99.90;;;;;;4982345;28;20211;-30
2023/12/15 12:48:08;;;;;;;3.63;2.90;;;7.50;99.90;;;;;;4988927;28;20184;-32
2023/12/15 12:50:34;;;;;;;3.30;2.73;;;7.50;99.90;;;;;;4964677;28;20183;-29